»·PEaware :: JUS326 KGJT-KSLC

JUS326 :: KGJT-KSLC

FLIGHT INFORMATION

Flight Status: Arrived
Operator:
USA Jet
More flights by this operator :: More flights under this callsign
Pilot: Erik S. (3779)
Aircraft: BOEING 737-300
(B733)
More flights by this aircraft type
Origin: KGJT Grand Junction Regl
United States
Destination: KSLC Salt Lake City Intl
United States
More flights between these airports :: More routes between these airports
Route: +JNC7 JNC J12 HELPR LEEHY5
File this flight plan on PilotEdge
Remarks:
Altitude:
(Current/Filed)
26,000ft
Speed:
(Current/Filed)
400kts
Departed: 20-Jan-18 01:20 PM
Arrived: 20-Jan-18 01:57 PM
Distance/Time
Traveled:
188nm/0:36
Distance/Time
To Go:
Arrived

Flight Plot

Page will automatically refresh every two minutes.

Flight plan parsing failed; only flown route is shown


Map Options




Map Legend


Flown Route
Filed Route
Departure Airport
Arrival Airport
Navaid (VOR, NDB)
Fix

Horizontal Profiles

Position Reports

Time Latitude Longitude Heading Altitude Ground
Speed
20-Jan-18 13:15 39.119085 -108.521321 127 4864ft 0kts
20-Jan-18 13:16 39.119085 -108.521321 127 4864ft 0kts
20-Jan-18 13:17 39.119085 -108.521321 127 4864ft 0kts
20-Jan-18 13:18 39.119085 -108.521321 127 4864ft 0kts
20-Jan-18 13:19 39.119085 -108.521321 127 4864ft 0kts
20-Jan-18 13:20 39.119085 -108.521321 127 4864ft 0kts
20-Jan-18 13:21 39.119085 -108.521321 127 4864ft 0kts
20-Jan-18 13:22 39.119085 -108.521321 127 4864ft 0kts
20-Jan-18 13:23 39.118979 -108.521115 116 4864ft 4kts
20-Jan-18 13:24 39.119308 -108.518264 125 4864ft 16kts
20-Jan-18 13:25 39.118799 -108.514771 311 4864ft 17kts
20-Jan-18 13:26 39.131111 -108.536804 304 5124ft 166kts
20-Jan-18 13:27 39.146795 -108.586297 242 7699ft 166kts
20-Jan-18 13:28 39.120968 -108.646677 239 9458ft 212kts
20-Jan-18 13:29 39.112360 -108.723410 288 11165ft 283kts
20-Jan-18 13:30 39.150210 -108.825053 288 12569ft 339kts
20-Jan-18 13:31 39.184308 -108.920383 287 14758ft 347kts
20-Jan-18 13:32 39.218557 -109.015859 287 16640ft 356kts
20-Jan-18 13:33 39.257867 -109.125436 287 18467ft 369kts
20-Jan-18 13:34 39.298331 -109.237693 286 20419ft 372kts
20-Jan-18 13:35 39.340274 -109.356506 286 22090ft 381kts
20-Jan-18 13:36 39.384016 -109.480222 285 23564ft 380kts
20-Jan-18 13:37 39.427215 -109.602980 284 25027ft 374kts
20-Jan-18 13:38 39.469966 -109.725099 283 25760ft 384kts
20-Jan-18 13:39 39.516056 -109.857282 284 25733ft 420kts
20-Jan-18 13:40 39.565433 -109.999030 285 25720ft 448kts
20-Jan-18 13:41 39.617014 -110.147158 285 25729ft 463kts
20-Jan-18 13:42 39.670018 -110.300531 285 25773ft 467kts
20-Jan-18 13:43 39.722407 -110.453794 285 25779ft 466kts
20-Jan-18 13:44 39.775974 -110.606990 287 25774ft 469kts
20-Jan-18 13:45 39.833555 -110.758267 287 25774ft 470kts
20-Jan-18 13:46 39.890899 -110.909075 288 25157ft 467kts
20-Jan-18 13:47 39.944622 -111.050941 291 23476ft 421kts
20-Jan-18 13:48 39.995684 -111.185419 294 21268ft 406kts
20-Jan-18 13:49 40.044193 -111.315914 295 19071ft 398kts
20-Jan-18 13:50 40.091134 -111.442071 296 16841ft 362kts
20-Jan-18 13:51 40.132538 -111.553520 296 15973ft 334kts
20-Jan-18 13:52 40.172800 -111.662961 296 15979ft 335kts
20-Jan-18 13:53 40.232276 -111.754879 315 14258ft 331kts
20-Jan-18 13:54 40.297536 -111.839123 322 12469ft 329kts
20-Jan-18 13:55 40.369272 -111.911279 322 11033ft 321kts
20-Jan-18 13:56 40.452003 -111.937488 356 11022ft 290kts
20-Jan-18 13:57 40.520744 -111.943718 355 10922ft 207kts
20-Jan-18 13:58 40.577255 -111.950033 354 9400ft 204kts
20-Jan-18 13:59 40.631965 -111.956468 354 7640ft 195kts
20-Jan-18 14:00 40.684222 -111.962565 353 6063ft 185kts
20-Jan-18 14:01 40.729407 -111.967798 353 5134ft 141kts
20-Jan-18 14:02 40.767651 -111.972222 353 4423ft 137kts
20-Jan-18 14:03 40.792741 -111.976605 325 4234ft 16kts
20-Jan-18 14:04 40.794590 -111.977609 357 4234ft 19kts
20-Jan-18 14:05 40.801482 -111.980365 348 4234ft 22kts
20-Jan-18 14:06 40.802294 -111.985009 357 4234ft 0kts
20-Jan-18 14:07 40.802294 -111.985009 357 4234ft 0kts
20-Jan-18 14:08 40.802294 -111.985009 357 4234ft 0kts
20-Jan-18 14:09 40.802294 -111.985009 357 4234ft 0kts

Navigation Log

Ident Type
Flight plan parsing failed, navigation log unavailable